Station: Tasman Island  

  Atmospheric Gas Attenuation - ITU Rec 676-11   ----------------- dB/100km -----------------
Date Time Temp RH % AH g/m3 Dew Point Wind Direction Speed kph Gust kph Barometer mB Rainfall Since 9am 24GHz 47GHz 76GHz 122GHz 134GHz 241GHz
04/05 13:40 14.9 72 9.18 9.9 19 24 1008.3 0 20.8 26.3 41.3 108.7 104.2 359.1
04/05 13:30 14.8 61 7.73 7.4 22 28 1008.3 0 17.7 24.1 35.7 93.6 85.6 293.9
04/05 13:20 16 62 8.45 8.7 24 28 1008.5 0 19.2 24.9 37.9 99.5 93.4 321.2
04/05 13:10 16.3 63 8.74 9.2 20 26 1008.5 0 19.8 25.2 38.9 102.2 96.7 332.9
04/05 13:00 15.9 63 8.53 8.9 20 28 1008.7 0 19.3 25.0 38.3 100.5 94.5 325.2
04/05 12:50 15.9 68 9.21 10 20 24 1008.9 0 20.8 26.1 41.0 107.7 103.3 356.1
04/05 12:40 15.8 71 9.56 10.7 22 26 1009 0 21.5 26.7 42.4 111.6 108.1 372.7
04/05 12:30 15.9 72 9.75 10.9 24 30 1009.3 0 21.9 27.0 43.2 113.5 110.5 381.1
04/05 12:20 15.9 73 9.89 11.2 26 30 1009.4 0 22.2 27.2 43.7 115.0 112.4 387.7
04/05 12:10 16.6 71 10.03 11.3 20 24 1009.4 0 22.5 27.2 43.9 115.5 113.2 390.8
04/05 12:00 16.3 75 10.4 11.9 19 26 1009.6 0 23.3 27.9 45.6 120.0 118.7 409.8
04/05 11:50 16.1 76 10.42 12 20 24 1009.9 0 23.4 28.1 45.8 120.6 119.3 411.9
04/05 11:40 16.4 80 11.17 12.9 20 24 1010 0 25.0 29.2 48.8 128.5 129.1 446.3
04/05 11:30 16.4 70 9.77 10.9 19 26 1010 0 22.0 26.9 43.0 113.1 110.1 379.8
04/05 11:20 16.5 73 10.25 11.6 15 19 1010 0 23.0 27.7 44.9 118.1 116.4 401.8
04/05 11:10 16.6 76 10.74 12.3 15 19 1010 0 24.0 28.4 46.9 123.4 122.9 424.5
04/05 11:00 16.1 75 10.28 11.7 9 15 1010 0 23.1 27.8 45.2 119.1 117.4 405.2
04/05 10:50 16.4 76 10.61 12.1 9 13 1010 0 23.8 28.3 46.4 122.2 121.4 419.3
04/05 10:40 16.6 74 10.45 11.9 11 13 1010 0 23.4 28.0 45.7 120.2 118.9 410.7
04/05 10:30 16.7 70 9.95 11.2 6 9 1010 0 22.3 27.1 43.6 114.6 112.1 386.7
04/05 10:20 16.5 67 9.41 10.3 6 6 1010.1 0 21.2 26.3 41.5 109.1 105.2 362.8
04/05 10:10 16.4 72 10.05 11.3 7 9 1010.2 0 22.6 27.4 44.1 116.1 113.9 392.9
04/05 10:00 16.5 68 9.55 10.6 6 11 1010.2 0 21.5 26.5 42.1 110.6 107.1 369.3
04/05 09:50 16.5 63 8.85 9.4 6 9 1010.2 0 20.0 25.4 39.3 103.2 98.0 337.5
04/05 09:40 16.1 66 9.05 9.7 9 11 1010.2 0 20.4 25.8 40.3 105.8 101.1 348.2
04/05 09:30 16.3 69 9.57 10.6 4 9 1010.1 0 21.5 26.6 42.3 111.1 107.6 371.1
04/05 09:20 16 62 8.45 8.9 4 6 1010.1 0 19.2 24.9 38.0 99.7 93.5 321.6
04/05 09:10 15.9 65 8.8 9.3 2 2 1010.2 0 19.9 25.5 39.4 103.5 98.1 337.8
04/05 09:00 15.8 66 8.88 9.5 4 7 1010.1 0 20.1 25.6 39.8 104.4 99.3 341.8
04/05 08:50 15.2 69 8.96 9.7 4 4 1010.1 1.4 20.3 25.9 40.4 106.1 101.1 348.1
04/05 08:40 14.9 74 9.43 10.3 4 6 1010.2 1.4 21.3 26.8 42.4 111.6 107.7 371.3
04/05 08:30 14.4 88 10.88 12.4 2 6 1010.1 1.4 24.5 29.4 48.8 128.5 128.4 443.6
04/05 08:20 13.9 92 11.03 12.6 2 2 1010.2 1.4 24.8 29.8 49.8 131.1 131.4 454.0
04/05 08:10 13.5 91 10.64 12 4 4 1010.3 1.4 24.0 29.3 48.3 127.3 126.6 436.9
04/05 08:00 13.4 91 10.58 12 4 7 1010 1.4 23.9 29.2 48.1 126.7 125.8 434.4
04/05 07:50 13.1 91 10.38 11.6 6 6 1009.8 1.4 23.5 29.0 47.4 124.9 123.5 426.1
04/05 07:40 13 91 10.32 11.5 9 11 1009.6 1.4 23.3 28.9 47.2 124.3 122.8 423.6
04/05 07:30 13 91 10.32 11.6 7 11 1009.4 1.4 23.3 28.9 47.2 124.3 122.7 423.6
04/05 07:20 13 90 10.21 11.4 9 11 1009.3 1.4 23.1 28.7 46.7 123.0 121.2 418.1
04/05 07:10 13 90 10.21 11.4 11 13 1009.1 1.4 23.1 28.7 46.7 123.0 121.2 418.0
04/05 07:00 13.1 90 10.27 11.5 11 13 1009 1.4 23.2 28.7 46.9 123.5 121.8 420.4
04/05 06:50 13.2 90 10.33 11.6 11 11 1008.9 1.4 23.3 28.8 47.1 124.0 122.5 422.8
04/05 06:40 13.3 89 10.28 11.5 11 15 1008.8 1.4 23.2 28.7 46.8 123.3 121.6 419.7
04/05 06:30 13.3 90 10.4 11.7 13 20 1008.7 1.4 23.5 28.9 47.3 124.7 123.3 425.6
04/05 06:20 13.4 89 10.35 11.6 13 17 1008.8 1.4 23.4 28.8 47.1 123.9 122.5 422.6
04/05 06:10 13.5 89 10.41 11.7 15 19 1008.9 1.4 23.5 28.8 47.3 124.5 123.2 425.1
04/05 06:00 13.6 90 10.59 12 17 24 1009 1.4 23.9 29.1 48.0 126.4 125.6 433.5
04/05 05:50 13.7 91 10.78 12.2 17 20 1009 1.4 24.3 29.4 48.8 128.4 128.1 442.3
04/05 05:40 13.9 92 11.03 12.6 13 19 1009 1.4 24.8 29.8 49.7 131.0 131.3 453.6
04/05 05:30 14.1 92 11.17 12.8 17 26 1008.9 1.4 25.1 30.0 50.2 132.3 133.0 459.4
04/05 05:20 14.2 92 11.23 13 15 19 1009 1.4 25.2 30.0 50.4 132.8 133.7 461.9
04/05 05:10 14.1 92 11.17 12.9 13 15 1008.7 1.4 25.1 30.0 50.2 132.2 132.9 459.3
04/05 05:00 14.2 93 11.36 13.1 11 19 1008.6 1.4 25.5 30.3 51.0 134.3 135.5 468.2
04/05 04:50 14.1 92 11.17 12.9 13 15 1008.7 1.4 25.1 30.0 50.2 132.2 132.9 459.3
04/05 04:40 14.1 92 11.17 12.9 15 22 1008.6 1.4 25.1 30.0 50.2 132.2 132.9 459.3
04/05 04:30 14.3 93 11.43 13.2 9 22 1008.4 1.4 25.6 30.3 51.2 134.9 136.3 471.1
04/05 04:20 14.6 92 11.51 13.3 15 19 1008.2 1.4 25.8 30.4 51.3 135.3 136.9 473.2
04/05 04:10 14.7 91 11.46 13.2 7 15 1008 1.4 25.7 30.2 51.0 134.5 136.0 470.0
04/05 04:00 14.7 90 11.33 13.1 7 13 1008.3 1.4 25.4 30.0 50.5 133.0 134.1 463.6
04/05 03:50 14.8 89 11.27 13.1 7 9 1008.4 1.4 25.3 29.9 50.2 132.2 133.1 460.0
04/05 03:40 14.9 91 11.6 13.4 7 11 1008.2 1.4 26.0 30.4 51.5 135.8 137.6 475.9
04/05 03:30 15 89 11.41 13.2 17 26 1008.3 1.4 25.6 30.1 50.6 133.4 134.8 465.8
04/05 03:20 15.3 88 11.49 13.3 20 24 1008.6 1.4 25.7 30.1 50.8 133.9 135.4 468.0
04/05 03:10 15 89 11.41 13.3 13 15 1008.5 1.4 25.6 30.1 50.6 133.5 134.8 465.8
04/05 03:00 14.9 92 11.73 13.6 20 28 1008.7 1.4 26.3 30.7 52.1 137.4 139.6 482.6
04/05 02:50 14.7 92 11.58 13.5 22 24 1008.3 1.4 25.9 30.5 51.6 135.9 137.7 476.1
04/05 02:40 14.6 95 11.89 13.8 28 32 1008.6 1.4 26.6 31.1 53.0 139.8 142.4 492.6
04/05 02:30 14.8 94 11.91 13.8 35 44 1009 1.4 26.6 31.0 53.0 139.7 142.4 492.5
04/05 02:20 14.9 92 11.73 13.6 32 39 1008.7 1.4 26.3 30.7 52.1 137.4 139.6 482.6
04/05 02:10 15.1 89 11.48 13.3 28 37 1008.9 1.4 25.7 30.2 50.9 134.1 135.6 468.9
04/05 02:00 15.1 88 11.35 13.1 32 39 1008.9 1.4 25.4 29.9 50.3 132.6 133.8 462.4
04/05 01:50 15.3 87 11.36 13.1 32 39 1009.1 1.4 25.4 29.9 50.3 132.4 133.6 461.8
04/05 01:40 15.2 88 11.42 13.2 32 35 1009.1 1.4 25.6 30.0 50.6 133.3 134.6 465.3
04/05 01:30 15.4 90 11.82 13.8 24 35 1009.3 1.4 26.4 30.7 52.2 137.6 140.0 484.2
04/05 01:20 15.5 88 11.63 13.5 22 28 1009.4 1.4 26.0 30.3 51.3 135.2 137.1 474.1
04/05 01:10 15.6 88 11.7 13.6 22 24 1009.4 1.4 26.1 30.4 51.6 135.9 137.9 477.0
04/05 01:00 15.7 87 11.64 13.5 22 32 1009.5 1.4 26.0 30.3 51.2 135.0 136.9 473.4
04/05 00:50 15.7 86 11.51 13.3 17 19 1009.7 1.4 25.7 30.0 50.7 133.5 135.1 467.0
04/05 00:40 15.8 87 11.71 13.6 30 35 1009.7 1.4 26.2 30.4 51.5 135.7 137.8 476.3
04/05 00:30 15.7 88 11.77 13.7 19 30 1009.9 1.4 26.3 30.5 51.8 136.6 138.8 480.0
04/05 00:20 15.8 88 11.85 13.8 20 24 1009.8 1.4 26.5 30.6 52.1 137.3 139.8 483.4
04/05 00:10 15.6 89 11.84 13.8 22 30 1010 1.4 26.4 30.7 52.2 137.6 140.0 484.2
04/05 00:00 15.6 90 11.97 14 26 43 1010 1.4 26.7 30.9 52.8 139.1 141.9 490.7
03/05 23:50 15.6 89 11.84 13.8 20 32 1010.1 1.4 26.4 30.7 52.2 137.6 140.0 484.2
03/05 23:40 15.6 90 11.97 13.9 24 39 1010.3 1.4 26.7 30.9 52.8 139.2 141.9 490.8
03/05 23:30 15.9 87 11.78 13.7 33 50 1010.4 1.4 26.3 30.5 51.8 136.4 138.6 479.5
03/05 23:20 16.1 84 11.51 13.5 41 56 1010.4 1.4 25.7 29.9 50.5 132.9 134.4 464.8
03/05 23:10 16.1 84 11.51 13.5 35 44 1010.1 1.4 25.7 29.9 50.4 132.9 134.4 464.7
03/05 23:00 16.2 84 11.58 13.5 37 50 1010.2 1.4 25.8 30.0 50.7 133.5 135.2 467.6
03/05 22:50 16.2 84 11.58 13.5 30 37 1010.3 1.4 25.8 30.0 50.7 133.6 135.2 467.7
03/05 22:40 16.3 83 11.51 13.4 32 43 1010.5 1.4 25.7 29.9 50.3 132.6 134.1 463.7
03/05 22:30 16.6 79 11.16 12.9 28 41 1010.8 1.4 24.9 29.2 48.7 128.2 128.7 444.9
03/05 22:20 17 78 11.29 13.1 32 44 1010.8 1.2 25.2 29.3 49.0 129.0 129.9 448.9
03/05 22:10 16.6 81 11.44 13.3 39 48 1010.4 1.2 25.5 29.6 49.8 131.3 132.6 458.4
03/05 22:00 16.6 79 11.16 12.9 28 50 1010.5 1.2 24.9 29.2 48.6 128.1 128.7 444.8
03/05 21:50 16.8 78 11.15 12.9 32 39 1010 1.2 24.9 29.1 48.5 127.6 128.2 443.0
03/05 21:40 16.6 78 11.02 12.7 28 33 1009.8 1.2 24.6 28.9 48.0 126.5 126.7 437.8
03/05 21:30 16.9 77 11.07 12.8 22 39 1010 1.2 24.7 28.9 48.1 126.6 126.9 438.6
03/05 21:20 16.8 78 11.15 12.9 19 30 1010.2 1.2 24.9 29.1 48.5 127.7 128.2 443.1
03/05 21:10 16.4 81 11.3 13.1 32 43 1010 1.2 25.2 29.5 49.3 130.0 130.9 452.6

Last Refresh: 04-May-2026 13:11:52

Bureau of Meteorology